Time;durP1;ratioP1;P1;durP2;ratioP2;P2;SDS_P1;SDS_P2;PMS_P1;PMS_P2;Temp;Humidity;BMP_temperature;BMP_pressure;BME280_temperature;BME280_humidity;BME280_pressure;Samples;Min_cycle;Max_cycle;Signal;HPM_P1;HPM_P2
2022/09/27 00:01:53;;;;;;;3.42;3.13;;;13.50;99.90;;;;;;5053523;28;20204;-89
2022/09/27 00:04:21;;;;;;;3.00;2.70;;;13.40;99.90;;;;;;5053907;28;20213;-89
2022/09/27 00:06:49;;;;;;;3.83;3.53;;;13.40;99.90;;;;;;5052684;28;20259;-89
2022/09/27 00:09:19;;;;;;;7.03;3.08;;;13.40;99.90;;;;;;5053512;28;20233;-90
2022/09/27 00:11:47;;;;;;;4.82;3.35;;;13.40;99.90;;;;;;5052854;28;20228;-90
2022/09/27 00:14:17;;;;;;;2.33;2.22;;;13.40;99.90;;;;;;5053375;28;20210;-90
2022/09/27 00:16:45;;;;;;;2.97;2.78;;;13.40;99.90;;;;;;5053230;28;20212;-90
2022/09/27 00:19:16;;;;;;;5.28;2.90;;;13.40;99.90;;;;;;5052915;28;20221;-90
2022/09/27 00:21:45;;;;;;;3.33;3.03;;;13.40;99.90;;;;;;5053298;28;20236;-90
2022/09/27 00:24:15;;;;;;;2.85;2.63;;;13.40;99.90;;;;;;5053062;28;20205;-90
2022/09/27 00:26:46;;;;;;;2.58;2.40;;;13.40;99.90;;;;;;5053243;28;20212;-90
2022/09/27 00:29:15;;;;;;;3.40;3.10;;;13.40;99.90;;;;;;5052376;28;20230;-91
2022/09/27 00:31:44;;;;;;;3.92;2.92;;;13.30;99.90;;;;;;5053158;28;20232;-90
2022/09/27 00:34:19;;;;;;;2.97;2.78;;;13.30;99.90;;;;;;5052980;28;20208;-90
2022/09/27 00:36:48;;;;;;;2.88;2.67;;;13.30;99.90;;;;;;5053603;28;20208;-90
2022/09/27 00:39:17;;;;;;;2.90;2.70;;;13.30;99.90;;;;;;5053065;28;20241;-90
2022/09/27 00:41:46;;;;;;;3.47;3.17;;;13.30;99.90;;;;;;5052798;28;20198;-90
2022/09/27 00:46:50;;;;;;;2.83;2.58;;;13.30;99.90;;;;;;5050555;23;20233;-85
2022/09/27 00:49:23;;;;;;;2.30;2.20;;;13.30;99.90;;;;;;5011865;28;20195;-85
2022/09/27 00:51:55;;;;;;;3.03;2.80;;;13.20;99.90;;;;;;5020919;28;20221;-85
2022/09/27 00:54:26;;;;;;;3.05;2.78;;;13.20;99.90;;;;;;5032685;28;20211;-85
2022/09/27 00:56:57;;;;;;;3.28;3.08;;;13.20;99.90;;;;;;5032133;28;20210;-85
2022/09/27 00:59:30;;;;;;;2.53;2.33;;;13.20;99.90;;;;;;5032924;28;20210;-85
2022/09/27 01:01:58;;;;;;;3.72;2.88;;;13.20;99.90;;;;;;5032450;28;20209;-85
2022/09/27 01:04:29;;;;;;;2.72;2.53;;;13.20;99.90;;;;;;5032976;28;20198;-84
2022/09/27 01:06:58;;;;;;;2.65;2.47;;;13.20;99.90;;;;;;5032222;28;20207;-85
2022/09/27 01:09:27;;;;;;;3.78;2.40;;;13.20;99.90;;;;;;5032351;28;20213;-85
2022/09/27 01:12:11;;;;;;;3.00;2.80;;;13.10;99.90;;;;;;5032139;28;20248;-85
2022/09/27 01:14:54;;;;;;;3.20;2.55;;;13.10;99.90;;;;;;5031929;28;20199;-85
2022/09/27 01:17:39;;;;;;;3.30;2.97;;;13.10;99.90;;;;;;5032245;28;20198;-85
2022/09/27 01:20:37;;;;;;;3.03;2.83;;;13.10;99.90;;;;;;5032181;28;20210;-85
2022/09/27 01:23:29;;;;;;;2.88;2.65;;;13.10;99.90;;;;;;5032336;28;20210;-85
2022/09/27 01:26:11;;;;;;;3.47;3.17;;;13.10;99.90;;;;;;5031842;28;20221;-85
2022/09/27 01:28:49;;;;;;;3.53;2.90;;;13.00;99.90;;;;;;5032299;28;20218;-85
2022/09/27 01:31:27;;;;;;;7.30;3.47;;;13.00;99.90;;;;;;5031945;28;20222;-85
2022/09/27 01:34:03;;;;;;;2.97;2.70;;;13.00;99.90;;;;;;5032271;28;20236;-85
2022/09/27 01:36:42;;;;;;;3.40;3.10;;;13.00;99.90;;;;;;5012447;28;20230;-84
2022/09/27 01:39:20;;;;;;;3.47;3.17;;;12.90;99.90;;;;;;5016557;28;20214;-84
2022/09/27 01:41:56;;;;;;;3.13;2.80;;;12.90;99.90;;;;;;5032383;28;20210;-85
2022/09/27 01:44:29;;;;;;;3.00;2.80;;;12.80;99.90;;;;;;5032285;28;20206;-85
2022/09/27 01:47:03;;;;;;;5.07;2.65;;;12.80;99.90;;;;;;5031732;28;20210;-84
2022/09/27 01:49:37;;;;;;;2.95;2.75;;;12.80;99.90;;;;;;5031531;28;20235;-84
2022/09/27 01:52:09;;;;;;;2.58;2.40;;;12.80;99.90;;;;;;5031684;28;20234;-84
2022/09/27 01:54:41;;;;;;;4.07;3.17;;;12.80;99.90;;;;;;5032466;28;20209;-84
2022/09/27 01:57:13;;;;;;;1.95;1.85;;;12.80;99.90;;;;;;5031919;28;20207;-84
2022/09/27 01:59:47;;;;;;;4.22;2.70;;;12.80;99.90;;;;;;5033103;28;20206;-84
2022/09/27 02:02:23;;;;;;;3.15;2.85;;;12.80;99.90;;;;;;5036287;28;20210;-84
2022/09/27 02:04:54;;;;;;;2.75;2.55;;;12.80;99.90;;;;;;5035189;28;20219;-84
2022/09/27 02:07:27;;;;;;;3.33;2.63;;;12.80;99.90;;;;;;5035273;28;20256;-85
2022/09/27 02:09:59;;;;;;;3.00;2.67;;;12.80;99.90;;;;;;5035691;28;20206;-84
2022/09/27 02:12:33;;;;;;;2.88;2.67;;;12.70;99.90;;;;;;5035211;28;20222;-84
2022/09/27 02:15:07;;;;;;;3.38;3.08;;;12.80;99.90;;;;;;5035932;28;20222;-84
2022/09/27 02:17:44;;;;;;;2.83;2.63;;;12.70;99.90;;;;;;5034902;28;20205;-84
2022/09/27 02:20:17;;;;;;;2.60;2.40;;;12.70;99.90;;;;;;5035642;28;20206;-84
2022/09/27 02:22:50;;;;;;;2.88;2.67;;;12.70;99.90;;;;;;5035396;28;20297;-84
2022/09/27 02:25:24;;;;;;;2.90;2.65;;;12.70;99.90;;;;;;5035227;28;20234;-84
2022/09/27 02:27:59;;;;;;;3.58;3.28;;;12.70;99.90;;;;;;5035214;28;20209;-84
2022/09/27 02:30:27;;;;;;;3.35;3.15;;;12.70;99.90;;;;;;5035387;28;20218;-84
2022/09/27 02:32:57;;;;;;;3.50;3.30;;;12.70;99.90;;;;;;5034884;28;20231;-84
2022/09/27 02:35:29;;;;;;;3.50;3.20;;;12.70;99.90;;;;;;5035350;28;20238;-84
2022/09/27 02:37:58;;;;;;;3.78;3.47;;;12.70;99.90;;;;;;5035105;28;20217;-84
2022/09/27 02:40:32;;;;;;;3.45;3.25;;;12.70;99.90;;;;;;5034968;28;20206;-85
2022/09/27 02:43:04;;;;;;;4.90;3.63;;;12.70;99.90;;;;;;5034986;28;20194;-84
2022/09/27 02:45:41;;;;;;;3.92;3.60;;;12.70;99.90;;;;;;5035223;28;20313;-85
2022/09/27 02:48:21;;;;;;;3.17;2.97;;;12.60;99.90;;;;;;5026614;28;20352;-85
2022/09/27 02:51:07;;;;;;;3.17;2.88;;;12.60;99.90;;;;;;5034368;28;20205;-85
2022/09/27 02:53:45;;;;;;;3.08;2.88;;;12.60;99.90;;;;;;5028124;28;20214;-84
2022/09/27 02:56:24;;;;;;;3.10;2.88;;;12.60;99.90;;;;;;5034522;28;20233;-84
2022/09/27 02:59:06;;;;;;;3.22;3.00;;;12.60;99.90;;;;;;5034593;28;20218;-85
2022/09/27 03:01:44;;;;;;;2.92;2.72;;;12.50;99.90;;;;;;5034843;28;20202;-85
2022/09/27 03:04:22;;;;;;;3.35;2.90;;;12.50;99.90;;;;;;5034874;28;20245;-85
2022/09/27 03:06:52;;;;;;;3.38;2.80;;;12.50;99.90;;;;;;5014769;28;20255;-91
2022/09/27 03:09:22;;;;;;;4.32;3.92;;;12.50;99.90;;;;;;5019157;28;20217;-85
2022/09/27 03:11:50;;;;;;;3.95;3.38;;;12.40;99.90;;;;;;5033570;28;20229;-85
2022/09/27 03:14:18;;;;;;;4.18;3.30;;;12.40;99.90;;;;;;5033904;28;20217;-84
2022/09/27 03:16:47;;;;;;;3.42;3.13;;;12.40;99.90;;;;;;5034553;28;20229;-83
2022/09/27 03:19:16;;;;;;;3.28;3.05;;;12.40;99.90;;;;;;5033666;28;20209;-85
2022/09/27 03:21:44;;;;;;;2.83;2.63;;;12.30;99.90;;;;;;5034405;28;20207;-84
2022/09/27 03:24:13;;;;;;;5.20;3.35;;;12.30;99.90;;;;;;5034114;28;20206;-85
2022/09/27 03:26:41;;;;;;;3.00;2.80;;;12.30;99.90;;;;;;5034402;28;20218;-85
2022/09/27 03:29:10;;;;;;;4.03;3.30;;;12.30;99.90;;;;;;5034336;28;20207;-85
2022/09/27 03:31:38;;;;;;;3.03;2.72;;;12.20;99.90;;;;;;5034173;28;20222;-84
2022/09/27 03:34:06;;;;;;;2.95;2.75;;;12.20;99.90;;;;;;5033954;28;20211;-84
2022/09/27 03:36:36;;;;;;;2.80;2.60;;;12.20;99.90;;;;;;5034144;28;20233;-84
2022/09/27 03:39:05;;;;;;;3.67;3.25;;;12.20;99.90;;;;;;5033897;28;20211;-84
2022/09/27 03:41:33;;;;;;;3.67;2.70;;;12.10;99.90;;;;;;5034266;28;20217;-84
2022/09/27 03:44:02;;;;;;;3.72;3.42;;;12.10;99.90;;;;;;5033956;28;20214;-84
2022/09/27 03:46:30;;;;;;;5.40;3.05;;;12.20;99.90;;;;;;5034032;28;20238;-85
2022/09/27 03:48:58;;;;;;;3.03;2.80;;;12.20;99.90;;;;;;5033709;28;20207;-85
2022/09/27 03:51:27;;;;;;;3.10;2.88;;;12.20;99.90;;;;;;5034121;28;20236;-85
2022/09/27 03:53:57;;;;;;;3.78;3.45;;;12.20;99.90;;;;;;5033550;28;20202;-85
2022/09/27 03:56:25;;;;;;;3.50;3.20;;;12.20;99.90;;;;;;5033822;28;20226;-85
2022/09/27 03:58:53;;;;;;;3.10;2.90;;;12.20;99.90;;;;;;5032967;28;20225;-84
2022/09/27 04:01:21;;;;;;;3.00;2.80;;;12.20;99.90;;;;;;5033630;28;20215;-85
2022/09/27 04:03:50;;;;;;;3.63;3.30;;;12.20;99.90;;;;;;5033542;28;20225;-84
2022/09/27 04:06:18;;;;;;;2.92;2.72;;;12.20;99.90;;;;;;5033603;28;20233;-84
2022/09/27 04:08:47;;;;;;;3.72;3.42;;;12.20;99.90;;;;;;5033606;28;20210;-85
2022/09/27 04:11:17;;;;;;;4.25;3.85;;;12.30;99.90;;;;;;5033752;28;20202;-84
2022/09/27 04:13:48;;;;;;;6.68;5.95;;;12.30;99.90;;;;;;5033577;28;20230;-84
2022/09/27 04:16:16;;;;;;;8.55;6.47;;;12.30;99.90;;;;;;5033194;28;20230;-85
2022/09/27 04:18:45;;;;;;;5.22;4.70;;;12.30;99.90;;;;;;5033074;28;20202;-84
2022/09/27 04:21:13;;;;;;;4.75;4.35;;;12.40;99.90;;;;;;5033576;28;20212;-85
2022/09/27 04:23:41;;;;;;;4.07;3.78;;;12.40;99.90;;;;;;5033155;28;20210;-85
2022/09/27 04:26:10;;;;;;;4.32;3.92;;;12.40;99.90;;;;;;5033100;28;20222;-84
2022/09/27 04:28:40;;;;;;;5.28;3.95;;;12.40;99.90;;;;;;5033152;28;20210;-84
2022/09/27 04:31:08;;;;;;;4.57;4.18;;;12.50;99.90;;;;;;5032872;28;20201;-84
2022/09/27 04:33:36;;;;;;;4.18;3.88;;;12.50;99.90;;;;;;5033479;28;20233;-84
2022/09/27 04:38:51;;;;;;;3.63;3.33;;;12.60;99.90;;;;;;5033498;28;20194;-85
2022/09/27 04:41:22;;;;;;;3.38;3.17;;;12.50;99.90;;;;;;5034079;28;20210;-84
2022/09/27 04:43:53;;;;;;;4.47;4.07;;;12.50;99.90;;;;;;5033333;28;20199;-84
2022/09/27 04:46:30;;;;;;;4.28;3.97;;;12.60;99.90;;;;;;5033367;28;20234;-85
2022/09/27 04:48:59;;;;;;;4.22;3.58;;;12.60;99.90;;;;;;5033635;28;20213;-84
2022/09/27 04:51:28;;;;;;;4.40;4.00;;;12.60;99.90;;;;;;5033796;28;20207;-84
2022/09/27 04:53:56;;;;;;;4.05;3.65;;;12.60;99.90;;;;;;5033347;28;20226;-84
2022/09/27 04:56:25;;;;;;;3.20;2.90;;;12.60;99.90;;;;;;5033212;28;20230;-84
2022/09/27 04:58:54;;;;;;;3.95;3.30;;;12.60;99.90;;;;;;5033040;28;20198;-84
2022/09/27 05:01:23;;;;;;;2.85;2.58;;;12.50;99.90;;;;;;5033619;28;20328;-94
2022/09/27 05:03:51;;;;;;;3.70;3.40;;;12.40;99.90;;;;;;5033350;28;20195;-84
2022/09/27 05:06:19;;;;;;;3.67;3.38;;;12.30;99.90;;;;;;5032642;28;20223;-85
2022/09/27 05:08:48;;;;;;;4.03;3.22;;;12.20;99.90;;;;;;5032964;28;20210;-86
2022/09/27 05:11:16;;;;;;;3.03;2.72;;;12.10;99.90;;;;;;5032622;28;20201;-86
2022/09/27 05:13:44;;;;;;;2.80;2.53;;;12.10;99.90;;;;;;5032901;28;20221;-86
2022/09/27 05:16:14;;;;;;;2.70;2.50;;;12.10;99.90;;;;;;5033161;28;20230;-86
2022/09/27 05:18:43;;;;;;;3.15;2.85;;;12.00;99.90;;;;;;5033452;28;20206;-86
2022/09/27 05:21:11;;;;;;;5.03;3.25;;;12.10;99.90;;;;;;5033115;28;20198;-87
2022/09/27 05:23:39;;;;;;;3.35;3.08;;;12.10;99.90;;;;;;5032991;28;20214;-86
2022/09/27 05:26:14;;;;;;;3.60;3.28;;;12.10;99.90;;;;;;5032245;28;20229;-86
2022/09/27 05:28:43;;;;;;;3.92;3.53;;;12.20;99.90;;;;;;5033085;28;20242;-86
2022/09/27 05:31:12;;;;;;;4.00;3.70;;;12.20;99.90;;;;;;5033051;28;20200;-86
2022/09/27 05:33:43;;;;;;;3.53;3.22;;;12.30;99.90;;;;;;5032374;28;20230;-86
2022/09/27 05:36:11;;;;;;;3.72;3.42;;;12.30;99.90;;;;;;5036093;28;20233;-85
2022/09/27 05:38:41;;;;;;;4.50;4.07;;;12.30;99.90;;;;;;5036602;28;20206;-85
2022/09/27 05:41:10;;;;;;;3.38;3.17;;;12.30;99.90;;;;;;5037100;28;20214;-91
2022/09/27 05:43:38;;;;;;;3.95;3.55;;;12.40;99.90;;;;;;5036944;28;20214;-87
2022/09/27 05:46:06;;;;;;;5.35;4.22;;;12.50;99.90;;;;;;5036280;28;20240;-87
2022/09/27 05:48:35;;;;;;;4.50;3.72;;;12.50;99.90;;;;;;5036162;28;20217;-90
2022/09/27 05:51:09;;;;;;;4.47;4.07;;;12.60;99.90;;;;;;5036997;28;20212;-84
2022/09/27 05:53:37;;;;;;;4.00;3.70;;;12.60;99.90;;;;;;5036035;28;20222;-84
2022/09/27 05:56:06;;;;;;;4.68;4.10;;;12.70;99.90;;;;;;5034828;28;20237;-84
2022/09/27 05:58:34;;;;;;;5.65;4.47;;;12.80;99.90;;;;;;5026615;28;20198;-83
2022/09/27 06:01:06;;;;;;;5.70;4.30;;;12.80;99.90;;;;;;5035634;28;20272;-84
2022/09/27 06:03:35;;;;;;;4.93;4.45;;;12.90;99.90;;;;;;5026829;28;20199;-85
2022/09/27 06:06:05;;;;;;;5.10;4.63;;;12.90;99.90;;;;;;5033744;28;20221;-85
2022/09/27 06:08:34;;;;;;;5.57;5.10;;;13.00;99.90;;;;;;5035954;28;20203;-85
2022/09/27 06:11:04;;;;;;;6.25;5.28;;;13.00;99.90;;;;;;5035991;28;20198;-84
2022/09/27 06:13:35;;;;;;;4.53;4.13;;;13.00;99.90;;;;;;5035495;28;20203;-85
2022/09/27 06:16:04;;;;;;;4.82;4.35;;;13.10;99.90;;;;;;5035398;28;20223;-84
2022/09/27 06:18:32;;;;;;;5.18;4.75;;;13.10;99.90;;;;;;5035573;28;20199;-84
2022/09/27 06:21:01;;;;;;;4.47;4.07;;;13.20;99.90;;;;;;5034031;28;20202;-84
2022/09/27 06:23:31;;;;;;;5.18;4.70;;;13.30;99.90;;;;;;5032061;28;20207;-84
2022/09/27 06:26:11;;;;;;;5.22;4.82;;;13.30;99.90;;;;;;5032187;28;20225;-84
2022/09/27 06:28:46;;;;;;;4.90;4.50;;;13.30;99.90;;;;;;5034374;28;20203;-84
2022/09/27 06:31:28;;;;;;;5.38;4.88;;;13.30;99.90;;;;;;5035391;28;20194;-81
2022/09/27 06:33:57;;;;;;;5.13;4.63;;;13.30;99.90;;;;;;5036217;28;20225;-81
2022/09/27 06:36:26;;;;;;;6.47;4.97;;;13.30;99.90;;;;;;5035014;28;20249;-81
2022/09/27 06:38:55;;;;;;;4.57;4.18;;;13.40;99.90;;;;;;5035044;28;20220;-81
2022/09/27 06:41:24;;;;;;;5.03;4.63;;;13.40;99.90;;;;;;5035703;28;20211;-81
2022/09/27 06:43:52;;;;;;;5.10;4.63;;;13.50;99.90;;;;;;5035445;28;20207;-81
2022/09/27 06:46:21;;;;;;;4.90;4.53;;;13.50;99.90;;;;;;5033544;28;20340;-81
2022/09/27 06:48:49;;;;;;;4.07;3.78;;;13.50;99.90;;;;;;5034611;28;20203;-82
2022/09/27 06:51:17;;;;;;;5.13;4.65;;;13.50;99.90;;;;;;5034964;28;20209;-82
2022/09/27 06:53:45;;;;;;;4.97;4.47;;;13.40;99.90;;;;;;5034893;28;20223;-81
2022/09/27 06:56:15;;;;;;;5.30;4.40;;;13.40;99.90;;;;;;5034925;28;20226;-81
2022/09/27 07:01:29;;;;;;;5.32;4.20;;;13.40;99.90;;;;;;5035246;28;20206;-81
2022/09/27 07:03:57;;;;;;;5.05;4.65;;;13.40;99.90;;;;;;5035261;28;20234;-81
2022/09/27 07:06:26;;;;;;;6.32;4.80;;;13.40;99.90;;;;;;5034676;28;20223;-81
2022/09/27 07:08:54;;;;;;;5.05;4.55;;;13.40;99.90;;;;;;5034651;28;20207;-81
2022/09/27 07:11:24;;;;;;;13.32;5.97;;;13.40;99.90;;;;;;5034765;28;20213;-81
2022/09/27 07:13:53;;;;;;;5.97;4.57;;;13.40;99.90;;;;;;5034918;28;20226;-81
2022/09/27 07:16:22;;;;;;;6.60;4.85;;;13.40;99.90;;;;;;5034631;28;20243;-81
2022/09/27 07:18:51;;;;;;;7.38;6.40;;;13.50;99.90;;;;;;5034302;28;20266;-81
2022/09/27 07:21:20;;;;;;;5.75;5.20;;;13.40;99.90;;;;;;5034432;28;20217;-81
2022/09/27 07:23:48;;;;;;;5.63;5.15;;;13.50;99.90;;;;;;5034392;28;20199;-81
2022/09/27 07:26:17;;;;;;;5.85;5.28;;;13.50;99.90;;;;;;5034620;28;20234;-81
2022/09/27 07:28:46;;;;;;;5.93;5.32;;;13.50;99.90;;;;;;5034520;28;20210;-81
2022/09/27 07:31:15;;;;;;;6.13;5.57;;;13.50;99.90;;;;;;5034979;28;20198;-81
2022/09/27 07:33:44;;;;;;;7.20;5.68;;;13.50;99.90;;;;;;5034315;28;20307;-82
2022/09/27 07:36:13;;;;;;;7.05;5.35;;;13.60;99.90;;;;;;5033786;28;20218;-81
2022/09/27 07:38:41;;;;;;;5.65;5.22;;;13.50;99.90;;;;;;5034300;28;20214;-81
2022/09/27 07:41:12;;;;;;;5.78;5.28;;;13.50;99.90;;;;;;5034545;28;20229;-82
2022/09/27 07:43:42;;;;;;;7.35;6.25;;;13.50;99.90;;;;;;5034057;28;20219;-82
2022/09/27 07:46:13;;;;;;;5.97;5.43;;;13.50;99.90;;;;;;5034033;28;20245;-82
2022/09/27 07:48:41;;;;;;;5.78;5.25;;;13.50;99.90;;;;;;5033689;28;20252;-81
2022/09/27 07:51:10;;;;;;;7.75;6.95;;;13.30;99.90;;;;;;5033909;28;20210;-81
2022/09/27 07:53:39;;;;;;;5.30;4.88;;;13.40;99.90;;;;;;5034064;28;20209;-83
2022/09/27 07:56:08;;;;;;;12.00;5.68;;;13.40;99.90;;;;;;5033870;28;20277;-82
2022/09/27 07:58:36;;;;;;;6.82;6.07;;;13.40;99.90;;;;;;5033152;28;20202;-81
2022/09/27 08:01:06;;;;;;;6.72;6.13;;;13.40;99.90;;;;;;5033871;28;20213;-81
2022/09/27 08:03:36;;;;;;;5.25;4.85;;;13.30;99.90;;;;;;5033761;28;20216;-81
2022/09/27 08:06:05;;;;;;;6.70;5.45;;;13.30;99.90;;;;;;5033765;28;20309;-81
2022/09/27 08:08:33;;;;;;;5.97;5.47;;;13.30;99.90;;;;;;5033573;28;20210;-81
2022/09/27 08:11:01;;;;;;;6.78;6.13;;;13.30;99.90;;;;;;5033592;28;20214;-80
2022/09/27 08:13:29;;;;;;;6.47;5.97;;;13.20;99.90;;;;;;5033322;28;20213;-81
2022/09/27 08:16:02;;;;;;;7.22;5.80;;;13.20;99.90;;;;;;5033337;28;20234;-80
2022/09/27 08:18:30;;;;;;;6.03;5.43;;;13.10;99.90;;;;;;5033383;28;20221;-80
2022/09/27 08:21:01;;;;;;;5.70;5.20;;;13.00;99.90;;;;;;5033389;28;20218;-79
2022/09/27 08:23:29;;;;;;;4.78;4.43;;;12.90;99.90;;;;;;5033481;28;20202;-80
2022/09/27 08:25:58;;;;;;;6.53;5.93;;;12.80;99.90;;;;;;5033148;28;20230;-80
2022/09/27 08:28:27;;;;;;;6.47;5.85;;;12.60;99.90;;;;;;5033101;28;20221;-80
2022/09/27 08:30:58;;;;;;;4.88;4.22;;;12.60;99.90;;;;;;5033189;28;20207;-80
2022/09/27 08:33:26;;;;;;;3.88;3.58;;;12.50;99.90;;;;;;5033522;28;20207;-80
2022/09/27 08:36:02;;;;;;;4.18;3.78;;;12.40;99.90;;;;;;5032549;28;20226;-80
2022/09/27 08:38:30;;;;;;;2.83;2.63;;;12.30;99.90;;;;;;5033341;28;20203;-79
2022/09/27 08:41:07;;;;;;;3.55;3.33;;;12.20;99.90;;;;;;5032867;28;20205;-79
2022/09/27 08:43:41;;;;;;;3.58;3.30;;;12.20;99.90;;;;;;5033215;28;20210;-80
2022/09/27 08:46:21;;;;;;;3.17;2.95;;;12.10;99.90;;;;;;5032105;28;20244;-80
2022/09/27 08:48:54;;;;;;;3.33;3.03;;;12.10;99.90;;;;;;5032593;28;20248;-80
2022/09/27 08:51:28;;;;;;;3.72;3.28;;;12.00;99.90;;;;;;5032712;28;20214;-79
2022/09/27 08:54:03;;;;;;;4.07;3.53;;;12.00;99.90;;;;;;5032748;28;20213;-80
2022/09/27 08:56:32;;;;;;;5.05;3.83;;;11.90;99.90;;;;;;5032459;28;20236;-79
2022/09/27 08:59:06;;;;;;;3.47;3.22;;;12.00;99.90;;;;;;5032963;28;20218;-80
2022/09/27 09:01:35;;;;;;;3.03;2.83;;;12.00;99.90;;;;;;5032569;28;20336;-80
2022/09/27 09:04:04;;;;;;;3.80;3.50;;;11.90;99.90;;;;;;5032634;28;20234;-79
2022/09/27 09:06:43;;;;;;;3.58;3.28;;;12.00;99.90;;;;;;5032685;28;20222;-79
2022/09/27 09:09:26;;;;;;;2.13;2.03;;;12.10;99.90;;;;;;5031766;28;20214;-79
2022/09/27 09:15:06;;;;;;;5.03;2.72;;;12.10;99.90;;;;;;5032284;28;20310;-80
2022/09/27 09:17:51;;;;;;;4.85;2.88;;;12.10;99.90;;;;;;5032048;28;20219;-80
2022/09/27 09:20:31;;;;;;;3.17;2.88;;;12.10;99.90;;;;;;5032190;28;20221;-80
2022/09/27 09:23:34;;;;;;;3.45;3.08;;;12.10;99.90;;;;;;5032433;28;20209;-79
2022/09/27 09:26:09;;;;;;;3.78;3.47;;;12.10;99.90;;;;;;5032450;28;20243;-80
2022/09/27 09:28:50;;;;;;;3.40;3.10;;;12.10;99.90;;;;;;5032386;28;20209;-81
2022/09/27 09:31:26;;;;;;;2.95;2.75;;;12.10;99.90;;;;;;5032703;28;20217;-80
2022/09/27 09:33:59;;;;;;;2.88;2.67;;;12.10;99.90;;;;;;5032461;28;20292;-79
2022/09/27 09:36:31;;;;;;;2.85;2.65;;;12.10;99.90;;;;;;5031739;28;20229;-80
2022/09/27 09:39:05;;;;;;;3.22;2.70;;;12.20;99.90;;;;;;5032456;28;20217;-80
2022/09/27 09:41:39;;;;;;;3.63;2.95;;;12.10;99.90;;;;;;5032108;28;20206;-80
2022/09/27 09:44:17;;;;;;;2.53;2.38;;;12.10;99.90;;;;;;5032039;28;20233;-80
2022/09/27 09:46:49;;;;;;;2.60;2.40;;;12.10;99.90;;;;;;5032123;28;20230;-80
2022/09/27 09:49:22;;;;;;;4.72;2.83;;;12.10;99.90;;;;;;5012232;28;20203;-79
2022/09/27 09:51:55;;;;;;;3.50;2.60;;;12.20;99.90;;;;;;5012525;28;20215;-79
2022/09/27 09:54:31;;;;;;;2.95;2.72;;;12.20;99.90;;;;;;5012275;28;20211;-80
2022/09/27 09:57:05;;;;;;;2.33;2.22;;;12.20;99.90;;;;;;5012275;28;20231;-80
2022/09/27 09:59:40;;;;;;;4.88;3.83;;;12.30;99.90;;;;;;5012447;28;20215;-80
2022/09/27 10:02:21;;;;;;;4.97;4.32;;;12.40;99.90;;;;;;5012763;28;20218;-79
2022/09/27 10:04:50;;;;;;;3.65;3.38;;;12.60;99.90;;;;;;5012478;28;20234;-79
2022/09/27 10:07:22;;;;;;;3.80;3.50;;;12.70;99.90;;;;;;5012271;28;20207;-80
2022/09/27 10:09:54;;;;;;;4.65;3.80;;;12.80;99.90;;;;;;5011953;28;20214;-79
2022/09/27 10:12:22;;;;;;;3.40;3.20;;;12.90;99.90;;;;;;5012295;28;20211;-79
2022/09/27 10:14:51;;;;;;;3.25;3.03;;;12.90;99.90;;;;;;5011450;28;20245;-80
2022/09/27 10:17:23;;;;;;;3.58;3.38;;;13.00;99.90;;;;;;5012356;28;20211;-81
2022/09/27 10:19:55;;;;;;;3.70;3.40;;;13.20;99.90;;;;;;5011997;28;20234;-80
2022/09/27 10:22:29;;;;;;;4.22;3.60;;;13.20;99.90;;;;;;5016662;28;20286;-81
2022/09/27 10:25:02;;;;;;;4.03;3.63;;;13.30;99.90;;;;;;5016040;28;20238;-80
2022/09/27 10:27:40;;;;;;;2.38;2.25;;;13.50;99.90;;;;;;5016252;28;20207;-81
2022/09/27 10:30:22;;;;;;;2.20;2.10;;;13.50;99.90;;;;;;5016088;28;20210;-82
2022/09/27 10:32:55;;;;;;;2.35;2.13;;;13.60;99.90;;;;;;5016292;28;20215;-80
2022/09/27 10:35:36;;;;;;;2.42;2.00;;;13.60;99.90;;;;;;5015704;28;20227;-81
2022/09/27 10:38:22;;;;;;;1.80;1.65;;;13.80;99.90;;;;;;5020830;28;20202;-81
2022/09/27 10:41:02;;;;;;;2.03;1.85;;;14.00;99.90;;;;;;5022585;28;20202;-81
2022/09/27 10:43:35;;;;;;;1.73;1.63;;;14.00;99.90;;;;;;5026417;28;20195;-81
2022/09/27 10:46:23;;;;;;;2.28;2.08;;;14.10;99.90;;;;;;5026678;28;20290;-81
2022/09/27 10:49:11;;;;;;;1.67;1.58;;;14.20;99.90;;;;;;5034521;28;20221;-82
2022/09/27 10:51:40;;;;;;;1.58;1.48;;;14.50;99.90;;;;;;5026995;28;20221;-82
2022/09/27 10:54:20;;;;;;;1.40;1.30;;;14.70;99.90;;;;;;5032658;28;20210;-84
2022/09/27 10:56:58;;;;;;;1.42;1.33;;;14.90;99.90;;;;;;5017243;28;20246;-84
2022/09/27 10:59:29;;;;;;;2.20;1.75;;;15.00;99.90;;;;;;5024521;28;20210;-84
2022/09/27 11:01:58;;;;;;;3.85;2.03;;;14.90;99.90;;;;;;5024790;28;20203;-84
2022/09/27 11:04:31;;;;;;;1.77;1.67;;;14.80;99.90;;;;;;5020540;28;20211;-84
2022/09/27 11:07:18;;;;;;;1.20;1.20;;;14.70;99.90;;;;;;5024638;28;20190;-85
2022/09/27 11:09:51;;;;;;;1.40;1.30;;;14.70;99.90;;;;;;5031556;28;20207;-84
2022/09/27 11:12:24;;;;;;;1.52;1.42;;;14.60;99.90;;;;;;5027934;28;20205;-84
2022/09/27 11:14:58;;;;;;;1.48;1.38;;;14.50;99.90;;;;;;5016869;28;20227;-84
2022/09/27 11:17:37;;;;;;;1.98;1.85;;;14.50;99.90;;;;;;5015591;28;20226;-85
2022/09/27 11:20:20;;;;;;;1.23;1.23;;;14.50;99.90;;;;;;5029868;28;20219;-85
2022/09/27 11:23:29;;;;;;;1.17;1.17;;;14.50;99.90;;;;;;5035228;28;20209;-85
2022/09/27 11:26:10;;;;;;;1.67;1.55;;;14.50;99.90;;;;;;4993840;28;20270;-85
2022/09/27 11:28:52;;;;;;;0.90;0.90;;;14.50;99.90;;;;;;5028989;28;20217;-85
2022/09/27 11:31:30;;;;;;;1.60;1.42;;;14.50;99.90;;;;;;5034760;28;20214;-85
2022/09/27 11:34:15;;;;;;;1.48;1.38;;;14.50;99.90;;;;;;5034765;28;20260;-85
2022/09/27 11:36:57;;;;;;;1.10;1.10;;;14.40;99.90;;;;;;5034509;28;20234;-86
2022/09/27 11:39:34;;;;;;;0.75;0.75;;;14.40;99.90;;;;;;5034995;28;20202;-85
2022/09/27 11:42:22;;;;;;;1.00;0.90;;;14.40;99.90;;;;;;5035024;28;20220;-85
2022/09/27 11:45:18;;;;;;;1.48;1.38;;;14.40;99.90;;;;;;5034586;28;20231;-85
2022/09/27 11:48:21;;;;;;;1.25;1.15;;;14.30;99.90;;;;;;5025972;28;20210;-85
2022/09/27 11:51:04;;;;;;;1.08;1.00;;;14.30;99.90;;;;;;5034327;28;20206;-86
2022/09/27 11:54:16;;;;;;;1.55;1.45;;;14.30;99.90;;;;;;5034778;28;20206;-85
2022/09/27 11:57:01;;;;;;;7.13;1.48;;;14.20;99.90;;;;;;4979125;28;20229;-81
2022/09/27 12:00:09;;;;;;;1.58;1.48;;;14.10;99.90;;;;;;5034632;28;20206;-81
2022/09/27 12:03:13;;;;;;;1.42;1.33;;;14.00;99.90;;;;;;4973463;28;20216;-81
2022/09/27 12:05:57;;;;;;;1.20;1.20;;;14.10;99.90;;;;;;5034693;28;20226;-81
2022/09/27 12:08:52;;;;;;;1.25;1.15;;;14.20;99.90;;;;;;5029372;28;20222;-81
2022/09/27 12:11:27;;;;;;;1.70;1.60;;;14.20;99.90;;;;;;5014375;28;20202;-81
2022/09/27 12:14:00;;;;;;;1.40;1.30;;;14.20;99.90;;;;;;5014565;28;20210;-81
2022/09/27 12:16:33;;;;;;;1.33;1.23;;;14.30;99.90;;;;;;5014234;28;20219;-81
2022/09/27 12:19:05;;;;;;;1.02;1.00;;;14.30;99.90;;;;;;5014146;28;20206;-81
2022/09/27 12:21:36;;;;;;;1.02;1.00;;;14.30;99.90;;;;;;5014245;28;20203;-80
2022/09/27 12:24:05;;;;;;;0.85;0.85;;;14.40;99.90;;;;;;5014215;28;20221;-81
2022/09/27 12:26:38;;;;;;;13.85;1.63;;;14.40;99.90;;;;;;5018473;28;20249;-80
2022/09/27 12:29:14;;;;;;;1.17;1.02;;;14.40;99.90;;;;;;5033967;28;20209;-80
2022/09/27 12:31:52;;;;;;;1.20;1.20;;;14.40;99.90;;;;;;5033898;28;20248;-81
2022/09/27 12:34:25;;;;;;;2.50;1.45;;;14.40;99.90;;;;;;5033732;28;20232;-79
2022/09/27 12:37:03;;;;;;;1.40;1.30;;;14.40;99.90;;;;;;5022601;28;20221;-81
2022/09/27 12:39:44;;;;;;;1.05;1.00;;;14.40;99.90;;;;;;5033509;28;20214;-81
2022/09/27 12:42:21;;;;;;;1.90;1.10;;;14.50;99.90;;;;;;5032329;28;20213;-82
2022/09/27 12:44:52;;;;;;;1.63;1.52;;;14.60;99.90;;;;;;5027941;28;20318;-82
2022/09/27 12:47:37;;;;;;;1.58;0.80;;;14.60;99.90;;;;;;5033624;28;20194;-82
2022/09/27 12:50:15;;;;;;;1.38;1.27;;;14.60;99.90;;;;;;5033241;28;20225;-82
2022/09/27 12:52:47;;;;;;;1.35;1.15;;;14.60;99.90;;;;;;5033524;28;20210;-82
2022/09/27 12:55:37;;;;;;;1.00;1.00;;;14.60;99.90;;;;;;5033523;28;20230;-82
2022/09/27 12:58:37;;;;;;;1.40;1.30;;;14.60;99.90;;;;;;5033517;28;20226;-80
2022/09/27 13:01:14;;;;;;;1.48;1.33;;;14.60;99.90;;;;;;5033101;28;20218;-80
2022/09/27 13:03:55;;;;;;;1.30;1.20;;;14.50;99.90;;;;;;5013347;28;20211;-82
2022/09/27 13:06:37;;;;;;;1.40;1.30;;;14.40;99.90;;;;;;5031741;28;20225;-82
2022/09/27 13:09:38;;;;;;;1.00;1.00;;;14.40;99.90;;;;;;5032753;28;20206;-81
2022/09/27 13:12:13;;;;;;;1.13;1.02;;;14.30;99.90;;;;;;5033309;28;20218;-82
2022/09/27 13:17:58;;;;;;;1.08;0.95;;;14.30;99.90;;;;;;4987670;28;20220;-81
2022/09/27 13:20:45;;;;;;;0.77;0.77;;;14.20;99.90;;;;;;4979071;28;20220;-81
2022/09/27 13:24:02;;;;;;;1.17;1.10;;;14.10;99.90;;;;;;4980751;28;20207;-81
2022/09/27 13:26:47;;;;;;;1.27;0.90;;;14.00;99.90;;;;;;5034245;23;20263;-82
2022/09/27 13:29:34;;;;;;;2.05;1.45;;;14.00;99.90;;;;;;5018431;28;20209;-82
2022/09/27 13:32:22;;;;;;;3.25;2.25;;;14.00;99.90;;;;;;5034719;28;20213;-82
2022/09/27 13:34:55;;;;;;;1.58;1.48;;;14.00;99.90;;;;;;5035194;28;20245;-82